createdAt,value
2023-04-20T00:00:53.482Z,37.79
2023-04-20T00:03:23.963Z,38.17
2023-04-20T00:05:53.897Z,38.08
2023-04-20T00:08:23.699Z,37.98
2023-04-20T00:10:55.944Z,38.24
2023-04-20T00:13:26.623Z,38.01
2023-04-20T00:15:56.770Z,37.86
2023-04-20T00:18:26.756Z,37.94
2023-04-20T00:20:57.150Z,37.73
2023-04-20T00:23:27.440Z,38.27
2023-04-20T00:25:59.082Z,38.19
2023-04-20T00:28:29.319Z,38.13
2023-04-20T00:30:59.150Z,38.11
2023-04-20T00:33:29.371Z,38.59
2023-04-20T00:35:59.184Z,38.35
2023-04-20T00:38:29.460Z,38.58
2023-04-20T00:41:01.844Z,38.92
2023-04-20T00:43:31.801Z,38.52
2023-04-20T00:46:04.089Z,38.48
2023-04-20T00:48:34.501Z,38.26
2023-04-20T00:51:04.710Z,38.64
2023-04-20T00:53:34.674Z,38.38
2023-04-20T00:56:07.401Z,38.39
2023-04-20T00:58:37.713Z,38.58
2023-04-20T01:01:08.277Z,38.93
2023-04-20T01:03:39.057Z,38.94
2023-04-20T01:06:11.402Z,39.15
2023-04-20T01:08:50.445Z,38.84
2023-04-20T01:11:22.336Z,38.89
2023-04-20T01:13:52.338Z,38.87
2023-04-20T01:16:21.940Z,38.94
2023-04-20T01:18:53.657Z,39.06
2023-04-20T01:21:24.984Z,39.23
2023-04-20T01:23:57.041Z,39.11
2023-04-20T01:26:28.377Z,38.94
2023-04-20T01:28:57.968Z,39.08
2023-04-20T01:31:28.344Z,39.54
2023-04-20T01:33:58.298Z,39.25
2023-04-20T01:36:28.730Z,39.44
2023-04-20T01:39:00.821Z,39.54
2023-04-20T01:41:31.070Z,39.20
2023-04-20T01:44:00.643Z,39.31
2023-04-20T01:46:30.835Z,39.46
2023-04-20T01:49:00.473Z,39.22
2023-04-20T01:51:30.661Z,39.40
2023-04-20T01:54:03.179Z,39.43
2023-04-20T01:56:33.303Z,39.36
2023-04-20T01:59:03.489Z,39.38
2023-04-20T02:01:33.136Z,39.79
2023-04-20T02:04:03.036Z,39.53
2023-04-20T02:06:33.544Z,39.52
2023-04-20T02:09:05.299Z,39.69
2023-04-20T02:11:35.595Z,39.75
2023-04-20T02:14:06.055Z,39.59
2023-04-20T02:16:36.916Z,39.85
2023-04-20T02:19:07.478Z,39.65
2023-04-20T02:21:37.760Z,39.76
2023-04-20T02:24:10.874Z,39.92
2023-04-20T02:26:41.074Z,39.88
2023-04-20T02:29:10.547Z,39.88
2023-04-20T02:31:40.900Z,40.05
2023-04-20T02:34:11.546Z,39.89
2023-04-20T02:36:41.731Z,40.10
2023-04-20T02:39:13.809Z,39.77
2023-04-20T02:41:44.277Z,39.95
2023-04-20T02:44:14.447Z,39.92
2023-04-20T02:46:44.271Z,40.09
2023-04-20T02:49:14.435Z,40.17
2023-04-20T02:51:44.875Z,40.16
2023-04-20T02:54:17.058Z,39.90
2023-04-20T02:56:46.671Z,40.33
2023-04-20T02:59:17.716Z,40.08
2023-04-20T03:01:48.119Z,40.06
2023-04-20T03:04:18.400Z,40.47
2023-04-20T03:06:49.213Z,40.20
2023-04-20T03:09:20.854Z,40.30
2023-04-20T03:11:51.123Z,40.19
2023-04-20T03:14:21.264Z,40.20
2023-04-20T03:16:52.039Z,40.34
2023-04-20T03:19:22.418Z,40.27
2023-04-20T03:21:52.126Z,40.20
2023-04-20T03:24:24.592Z,40.58
2023-04-20T03:26:54.636Z,40.57
2023-04-20T03:29:24.952Z,40.22
2023-04-20T03:31:55.909Z,40.44
2023-04-20T03:34:27.180Z,40.38
2023-04-20T03:36:57.103Z,40.56
2023-04-20T03:39:29.161Z,40.63
2023-04-20T03:41:59.901Z,40.53
2023-04-20T03:44:29.526Z,40.48
2023-04-20T03:46:59.708Z,40.50
2023-04-20T03:49:32.525Z,40.73
2023-04-20T03:52:02.138Z,40.29
2023-04-20T03:54:34.383Z,40.48
2023-04-20T03:57:04.555Z,40.47
2023-04-20T03:59:34.877Z,40.36
2023-04-20T04:02:06.285Z,40.75
2023-04-20T04:04:36.730Z,40.54
2023-04-20T04:07:06.743Z,40.53
2023-04-20T04:09:38.415Z,40.54
2023-04-20T04:12:09.562Z,40.20
2023-04-20T04:14:39.831Z,40.46
2023-04-20T04:17:09.685Z,40.52
2023-04-20T04:19:39.963Z,40.58
2023-04-20T04:22:10.824Z,40.55
2023-04-20T04:24:42.565Z,40.54
2023-04-20T04:27:14.626Z,40.13
2023-04-20T04:29:45.169Z,40.60
2023-04-20T04:32:15.329Z,40.68
2023-04-20T04:34:46.153Z,40.53
2023-04-20T04:37:17.147Z,40.60
2023-04-20T04:39:48.341Z,40.39
2023-04-20T04:42:18.511Z,40.46
2023-04-20T04:44:48.091Z,40.75
2023-04-20T04:47:22.349Z,40.39
2023-04-20T04:49:52.652Z,40.54
2023-04-20T04:52:22.866Z,40.47
2023-04-20T04:54:54.983Z,40.29
2023-04-20T04:57:25.183Z,40.29
2023-04-20T04:59:55.718Z,40.32
2023-04-20T05:02:26.168Z,40.23
2023-04-20T05:04:56.582Z,40.30
2023-04-20T05:07:26.761Z,40.42
2023-04-20T05:09:58.722Z,40.33
2023-04-20T05:12:28.446Z,40.54
2023-04-20T05:14:58.061Z,40.43
2023-04-20T05:17:28.276Z,40.18
2023-04-20T05:19:58.058Z,40.35
2023-04-20T05:22:28.254Z,40.06
2023-04-20T05:24:59.291Z,40.46
2023-04-20T05:27:29.195Z,40.54
2023-04-20T05:30:09.499Z,40.44
2023-04-20T05:32:51.898Z,40.30
2023-04-20T05:35:23.098Z,40.32
2023-04-20T05:37:53.245Z,40.20
2023-04-20T05:40:24.583Z,40.43
2023-04-20T05:42:54.769Z,40.30
2023-04-20T05:45:25.023Z,40.63
2023-04-20T05:47:59.156Z,40.08
2023-04-20T05:50:30.257Z,40.45
2023-04-20T05:53:00.443Z,40.03
2023-04-20T05:55:32.296Z,40.60
2023-04-20T05:58:02.683Z,40.39
2023-04-20T06:00:32.471Z,40.06
2023-04-20T06:03:02.544Z,40.34
2023-04-20T06:05:32.444Z,40.27
2023-04-20T06:08:02.182Z,40.11
2023-04-20T06:10:35.069Z,40.50
2023-04-20T06:13:04.796Z,40.19
2023-04-20T06:15:35.070Z,40.02
2023-04-20T06:18:05.499Z,39.97
2023-04-20T06:20:35.718Z,39.97
2023-04-20T06:23:05.947Z,39.80
2023-04-20T06:25:39.382Z,40.09
2023-04-20T06:28:09.835Z,39.90
2023-04-20T06:30:39.994Z,40.06
2023-04-20T06:33:12.269Z,40.09
2023-04-20T06:35:43.291Z,39.93
2023-04-20T06:38:12.792Z,40.16
2023-04-20T06:40:44.904Z,39.95
2023-04-20T06:43:15.438Z,39.83
2023-04-20T06:45:45.079Z,40.32
2023-04-20T06:48:30.949Z,40.25
2023-04-20T06:51:01.915Z,40.07
2023-04-20T06:53:32.324Z,39.96
2023-04-20T06:56:05.300Z,40.03
2023-04-20T06:58:35.502Z,40.04
2023-04-20T07:01:05.532Z,39.90
2023-04-20T07:03:35.666Z,39.98
2023-04-20T07:06:07.451Z,39.69
2023-04-20T07:08:36.981Z,39.81
2023-04-20T07:11:09.631Z,39.79
2023-04-20T07:13:39.579Z,39.97
2023-04-20T07:16:10.545Z,39.80
2023-04-20T07:18:40.189Z,39.54
2023-04-20T07:21:10.147Z,39.94
2023-04-20T07:23:40.589Z,40.00
2023-04-20T07:26:13.373Z,39.63
2023-04-20T07:28:43.309Z,39.98
2023-04-20T07:31:13.511Z,39.75
2023-04-20T07:33:43.996Z,39.42
2023-04-20T07:36:13.799Z,39.63
2023-04-20T07:38:44.306Z,39.94
2023-04-20T07:41:16.557Z,39.49
2023-04-20T07:43:47.165Z,39.75
2023-04-20T07:46:23.246Z,39.45
2023-04-20T07:48:53.599Z,39.58
2023-04-20T07:51:33.304Z,39.91
2023-04-20T07:54:03.784Z,39.64
2023-04-20T07:56:36.217Z,39.84
2023-04-20T07:59:06.472Z,39.66
2023-04-20T08:01:37.364Z,40.07
2023-04-20T08:04:07.427Z,40.06
2023-04-20T08:06:37.703Z,39.73
2023-04-20T08:09:07.525Z,39.72
2023-04-20T08:11:39.454Z,39.69
2023-04-20T08:14:09.647Z,39.98
2023-04-20T08:16:40.113Z,40.13
2023-04-20T08:19:12.357Z,39.99
2023-04-20T08:21:43.883Z,40.02
2023-04-20T08:24:14.664Z,40.07
2023-04-20T08:26:46.839Z,39.90
2023-04-20T08:29:17.228Z,39.98
2023-04-20T08:31:49.050Z,39.83
2023-04-20T08:34:20.334Z,39.43
2023-04-20T08:36:51.282Z,39.68
2023-04-20T08:39:24.577Z,39.73
2023-04-20T08:41:58.721Z,39.74
2023-04-20T08:44:29.664Z,39.49
2023-04-20T08:46:59.849Z,39.74
2023-04-20T08:49:31.662Z,39.05
2023-04-20T08:52:01.781Z,39.10
2023-04-20T08:54:32.626Z,39.13
2023-04-20T08:57:06.830Z,39.71
2023-04-20T08:59:39.598Z,39.10
2023-04-20T09:02:14.131Z,39.39
2023-04-20T09:04:49.419Z,39.02
2023-04-20T09:07:24.675Z,39.19
2023-04-20T09:09:58.843Z,39.50
2023-04-20T09:12:30.731Z,39.36
2023-04-20T09:15:00.987Z,39.31
2023-04-20T09:17:36.461Z,39.18
2023-04-20T09:20:08.960Z,38.77
2023-04-20T09:22:40.913Z,38.84
2023-04-20T09:25:17.617Z,38.70
2023-04-20T09:27:59.127Z,39.02
2023-04-20T09:30:40.063Z,39.16
2023-04-20T09:33:12.874Z,38.50
2023-04-20T09:35:45.109Z,39.33
2023-04-20T09:38:19.443Z,38.99
2023-04-20T09:40:49.976Z,38.73
2023-04-20T09:43:30.013Z,39.14
2023-04-20T09:46:00.544Z,39.22
2023-04-20T09:48:32.156Z,38.93
2023-04-20T09:51:05.621Z,38.65
2023-04-20T09:53:37.484Z,39.08
2023-04-20T09:56:09.368Z,38.72
2023-04-20T09:58:42.589Z,39.07
2023-04-20T10:01:14.140Z,38.76
2023-04-20T10:03:44.820Z,38.79
2023-04-20T10:06:25.912Z,38.76
2023-04-20T10:08:56.325Z,38.74
2023-04-20T10:11:41.093Z,38.81
2023-04-20T10:14:23.474Z,38.56
2023-04-20T10:17:03.889Z,39.05
2023-04-20T10:19:42.590Z,38.93
2023-04-20T10:22:15.058Z,38.57
2023-04-20T10:24:44.805Z,38.44
2023-04-20T10:27:22.648Z,38.99
2023-04-20T10:29:55.166Z,38.78
2023-04-20T10:32:27.248Z,38.59
2023-04-20T10:35:09.690Z,38.52
2023-04-20T10:37:51.480Z,38.45
2023-04-20T10:40:29.406Z,38.47
2023-04-20T10:42:59.924Z,38.64
2023-04-20T10:45:40.550Z,38.32
2023-04-20T10:48:15.465Z,38.88
2023-04-20T10:50:47.891Z,38.52
2023-04-20T10:53:24.295Z,38.48
2023-04-20T10:56:04.015Z,38.11
2023-04-20T10:58:33.696Z,38.64
2023-04-20T11:01:07.512Z,38.44
2023-04-20T11:03:37.421Z,38.64
2023-04-20T11:06:07.968Z,38.26
2023-04-20T11:08:43.970Z,38.43
2023-04-20T11:11:25.760Z,38.15
2023-04-20T11:14:07.640Z,38.15
2023-04-20T11:16:51.408Z,38.41
2023-04-20T11:19:34.241Z,38.13
2023-04-20T11:22:08.846Z,38.49
2023-04-20T11:24:41.534Z,38.15
2023-04-20T11:27:22.442Z,37.95
2023-04-20T11:30:00.187Z,38.06
2023-04-20T11:32:31.545Z,38.20
2023-04-20T11:35:06.832Z,38.28
2023-04-20T11:37:51.613Z,37.87
2023-04-20T11:40:22.378Z,38.28
2023-04-20T11:42:52.342Z,37.87
2023-04-20T11:45:22.596Z,38.03
2023-04-20T11:47:55.336Z,37.89
2023-04-20T11:50:25.635Z,38.10
2023-04-20T11:52:55.669Z,38.08
2023-04-20T11:55:26.000Z,37.71
2023-04-20T11:57:56.160Z,37.84
2023-04-20T12:00:26.758Z,37.94
2023-04-20T12:03:00.461Z,37.61
2023-04-20T12:05:31.910Z,38.04
2023-04-20T12:08:01.622Z,38.04
2023-04-20T12:10:31.869Z,37.32
2023-04-20T12:13:02.084Z,37.95
2023-04-20T12:15:32.463Z,37.65
2023-04-20T12:18:03.893Z,37.91
2023-04-20T12:20:34.149Z,37.70
2023-04-20T12:23:04.501Z,37.74
2023-04-20T12:25:34.707Z,37.60
2023-04-20T12:28:07.803Z,37.33
2023-04-20T12:30:38.216Z,37.45
2023-04-20T12:33:11.178Z,37.63
2023-04-20T12:35:40.906Z,37.75
2023-04-20T12:38:13.998Z,37.61
2023-04-20T12:40:44.352Z,37.61
2023-04-20T12:43:13.953Z,37.33
2023-04-20T12:45:44.328Z,37.79
2023-04-20T12:48:16.343Z,37.42
2023-04-20T12:50:46.836Z,37.23
2023-04-20T12:53:17.365Z,37.36
2023-04-20T12:55:49.576Z,37.56
2023-04-20T12:58:23.382Z,37.47
2023-04-20T13:00:53.604Z,37.31
2023-04-20T13:03:26.074Z,37.50
2023-04-20T13:05:55.957Z,37.33
2023-04-20T13:08:26.424Z,37.43
2023-04-20T13:10:56.338Z,37.23
2023-04-20T13:13:26.653Z,37.12
2023-04-20T13:15:56.598Z,37.08
2023-04-20T13:18:28.684Z,37.34
2023-04-20T13:20:59.140Z,37.08
2023-04-20T13:23:29.418Z,37.33
2023-04-20T13:26:01.886Z,37.26
2023-04-20T13:28:31.984Z,36.95
2023-04-20T13:31:02.557Z,37.14
2023-04-20T13:33:36.285Z,37.13
2023-04-20T13:36:07.000Z,37.41
2023-04-20T13:38:37.494Z,37.20
2023-04-20T13:41:08.367Z,36.83
2023-04-20T13:43:38.432Z,37.27
2023-04-20T13:46:08.578Z,37.32
2023-04-20T13:48:40.942Z,37.22
2023-04-20T13:51:10.901Z,37.00
2023-04-20T13:53:41.910Z,37.13
2023-04-20T13:56:12.345Z,36.84
2023-04-20T13:58:42.611Z,36.90
2023-04-20T14:01:14.645Z,37.04
2023-04-20T14:03:46.439Z,37.16
2023-04-20T14:06:16.752Z,37.17
2023-04-20T14:08:46.892Z,37.11
2023-04-20T14:11:17.268Z,37.26
2023-04-20T14:13:47.418Z,36.85
2023-04-20T14:16:17.292Z,36.94
2023-04-20T14:18:49.261Z,36.75
2023-04-20T14:21:19.672Z,37.00
2023-04-20T14:23:53.693Z,36.67
2023-04-20T14:26:24.068Z,36.98
2023-04-20T14:28:54.305Z,36.60
2023-04-20T14:31:24.621Z,36.94
2023-04-20T14:33:57.015Z,36.58
2023-04-20T14:36:27.324Z,37.19
2023-04-20T14:38:57.086Z,36.48
2023-04-20T14:41:26.825Z,37.04
2023-04-20T14:43:56.572Z,37.00
2023-04-20T14:46:26.641Z,36.98
2023-04-20T14:48:59.718Z,36.67
2023-04-20T14:51:31.354Z,36.93
2023-04-20T14:54:01.258Z,36.62
2023-04-20T14:56:30.975Z,36.63
2023-04-20T14:59:01.592Z,36.95
2023-04-20T15:01:31.884Z,36.76
2023-04-20T15:04:04.350Z,37.14
2023-04-20T15:06:34.900Z,36.86
2023-04-20T15:09:05.247Z,37.01
2023-04-20T15:11:35.909Z,36.79
2023-04-20T15:14:06.060Z,36.72
2023-04-20T15:16:36.356Z,36.64
2023-04-20T15:19:07.711Z,36.86
2023-04-20T15:21:37.920Z,36.62
2023-04-20T15:24:08.950Z,36.82
2023-04-20T15:26:39.241Z,36.71
2023-04-20T15:29:09.567Z,37.06
2023-04-20T15:31:40.761Z,36.86
2023-04-20T15:34:15.810Z,36.89
2023-04-20T15:36:46.263Z,37.01
2023-04-20T15:39:16.607Z,37.08
2023-04-20T15:41:46.846Z,36.86
2023-04-20T15:44:16.992Z,36.93
2023-04-20T15:46:47.139Z,36.98
2023-04-20T15:49:20.520Z,36.94
2023-04-20T15:51:50.790Z,37.04
2023-04-20T15:54:24.051Z,36.87
2023-04-20T15:56:54.169Z,36.87
2023-04-20T15:59:23.912Z,36.88
2023-04-20T16:01:53.844Z,36.82
2023-04-20T16:04:26.362Z,36.80
2023-04-20T16:06:56.302Z,36.91
2023-04-20T16:09:26.251Z,36.87
2023-04-20T16:11:56.039Z,36.73
2023-04-20T16:14:26.470Z,36.71
2023-04-20T16:16:56.661Z,37.01
2023-04-20T16:19:29.050Z,36.79
2023-04-20T16:21:59.338Z,37.02
2023-04-20T16:24:29.060Z,36.92
2023-04-20T16:27:01.517Z,36.96
2023-04-20T16:29:32.242Z,36.99
2023-04-20T16:32:02.459Z,36.97
2023-04-20T16:34:33.665Z,36.89
2023-04-20T16:37:03.959Z,37.03
2023-04-20T16:39:34.080Z,37.06
2023-04-20T16:42:04.388Z,37.13
2023-04-20T16:44:34.258Z,37.22
2023-04-20T16:47:04.232Z,36.98
2023-04-20T16:49:38.165Z,37.15
2023-04-20T16:52:09.523Z,36.99
2023-04-20T16:54:40.502Z,37.32
2023-04-20T16:57:11.432Z,37.06
2023-04-20T16:59:42.561Z,37.06
2023-04-20T17:02:13.279Z,37.14
2023-04-20T17:04:44.990Z,37.30
2023-04-20T17:07:15.469Z,37.44
2023-04-20T17:09:45.745Z,37.28
2023-04-20T17:12:15.961Z,37.12
2023-04-20T17:14:46.329Z,37.36
2023-04-20T17:17:16.540Z,37.37
2023-04-20T17:19:48.246Z,37.45
2023-04-20T17:22:18.597Z,37.46
2023-04-20T17:24:48.357Z,37.50
2023-04-20T17:27:18.473Z,37.37
2023-04-20T17:29:48.525Z,37.40
2023-04-20T17:32:18.776Z,37.43
2023-04-20T17:34:51.789Z,37.39
2023-04-20T17:37:23.382Z,37.52
2023-04-20T17:39:53.841Z,37.33
2023-04-20T17:42:24.193Z,37.55
2023-04-20T17:44:54.913Z,37.24
2023-04-20T17:47:25.278Z,37.28
2023-04-20T17:50:00.216Z,37.49
2023-04-20T17:52:30.702Z,37.36
2023-04-20T17:55:02.324Z,37.34
2023-04-20T17:57:32.475Z,37.58
2023-04-20T18:00:02.564Z,37.45
2023-04-20T18:02:32.154Z,37.70
2023-04-20T18:05:04.407Z,37.54
2023-04-20T18:07:35.031Z,37.29
2023-04-20T18:10:06.366Z,37.79
2023-04-20T18:12:36.653Z,37.75
2023-04-20T18:15:08.511Z,37.75
2023-04-20T18:17:38.936Z,37.72
2023-04-20T18:20:13.789Z,37.69
2023-04-20T18:22:43.484Z,37.69
2023-04-20T18:25:13.751Z,37.67
2023-04-20T18:27:43.745Z,37.66
2023-04-20T18:30:14.225Z,37.63
2023-04-20T18:32:44.796Z,37.67
2023-04-20T18:35:16.973Z,37.81
2023-04-20T18:37:46.998Z,37.87
2023-04-20T18:40:17.719Z,37.98
2023-04-20T18:42:48.113Z,37.85
2023-04-20T18:45:18.001Z,37.84
2023-04-20T18:47:48.566Z,37.91
2023-04-20T18:50:19.990Z,37.84
2023-04-20T18:52:50.324Z,37.87
2023-04-20T18:55:20.740Z,37.85
2023-04-20T18:57:50.912Z,38.06
2023-04-20T19:00:21.774Z,37.88
2023-04-20T19:02:52.003Z,37.95
2023-04-20T19:05:23.795Z,37.72
2023-04-20T19:07:53.897Z,37.79
2023-04-20T19:10:23.710Z,37.94
2023-04-20T19:12:53.919Z,38.08
2023-04-20T19:15:26.083Z,38.18
2023-04-20T19:17:58.091Z,37.74
2023-04-20T19:20:30.247Z,38.06
2023-04-20T19:23:00.393Z,38.02
2023-04-20T19:25:30.711Z,38.01
2023-04-20T19:28:01.067Z,37.97
2023-04-20T19:30:31.299Z,38.05
2023-04-20T19:33:02.791Z,38.17
2023-04-20T19:35:34.059Z,38.18
2023-04-20T19:38:03.763Z,38.12
2023-04-20T19:40:33.992Z,38.04
2023-04-20T19:43:03.924Z,38.03
2023-04-20T19:45:34.181Z,38.18
2023-04-20T19:48:04.583Z,37.98
2023-04-20T19:50:36.888Z,38.19
2023-04-20T19:53:07.752Z,38.03
2023-04-20T19:55:37.515Z,38.13
2023-04-20T19:58:10.997Z,37.94
2023-04-20T20:00:41.637Z,37.97
2023-04-20T20:03:12.844Z,37.93
2023-04-20T20:05:44.998Z,37.95
2023-04-20T20:08:15.554Z,38.05
2023-04-20T20:10:45.791Z,38.03
2023-04-20T20:13:16.345Z,38.00
2023-04-20T20:15:47.469Z,38.04
2023-04-20T20:18:18.100Z,37.93
2023-04-20T20:20:54.452Z,37.85
2023-04-20T20:23:24.728Z,37.90
2023-04-20T20:25:54.888Z,37.93
2023-04-20T20:28:25.096Z,37.85
2023-04-20T20:30:55.311Z,38.06
2023-04-20T20:33:26.434Z,38.04
2023-04-20T20:35:58.379Z,38.01
2023-04-20T20:38:31.388Z,37.89
2023-04-20T20:41:02.048Z,38.02
2023-04-20T20:43:32.380Z,37.95
2023-04-20T20:46:02.569Z,37.85
2023-04-20T20:48:33.138Z,38.00
2023-04-20T20:51:05.463Z,37.89
2023-04-20T20:53:35.182Z,38.05
2023-04-20T20:56:05.534Z,37.94
2023-04-20T20:58:35.909Z,37.96
2023-04-20T21:01:05.983Z,37.93
2023-04-20T21:03:36.585Z,37.93
2023-04-20T21:06:09.113Z,37.99
2023-04-20T21:08:38.671Z,37.88
2023-04-20T21:11:10.196Z,37.89
2023-04-20T21:13:40.407Z,37.89
2023-04-20T21:16:10.767Z,38.13
2023-04-20T21:18:40.673Z,37.82
2023-04-20T21:21:15.616Z,37.81
2023-04-20T21:23:45.805Z,37.71
2023-04-20T21:26:16.614Z,37.91
2023-04-20T21:28:47.125Z,38.02
2023-04-20T21:31:17.396Z,37.85
2023-04-20T21:33:47.561Z,37.79
2023-04-20T21:36:19.613Z,37.88
2023-04-20T21:38:49.928Z,37.85
2023-04-20T21:41:19.990Z,38.07
2023-04-20T21:43:49.759Z,37.92
2023-04-20T21:46:20.021Z,37.98
2023-04-20T21:48:50.424Z,37.95
2023-04-20T21:51:22.934Z,37.75
2023-04-20T21:53:53.413Z,38.05
2023-04-20T21:56:23.679Z,38.10
2023-04-20T21:58:53.996Z,38.08
2023-04-20T22:01:24.401Z,38.03
2023-04-20T22:03:55.220Z,38.08
2023-04-20T22:06:27.430Z,38.12
2023-04-20T22:09:00.413Z,38.13
2023-04-20T22:11:30.187Z,38.18
2023-04-20T22:14:00.844Z,38.16
2023-04-20T22:16:34.309Z,38.06
2023-04-20T22:19:04.835Z,38.12
2023-04-20T22:21:36.558Z,38.17
2023-04-20T22:24:07.200Z,38.31
2023-04-20T22:26:37.488Z,38.28
2023-04-20T22:29:07.409Z,38.33
2023-04-20T22:31:37.667Z,38.23
2023-04-20T22:34:08.118Z,38.35
2023-04-20T22:36:40.570Z,37.97
2023-04-20T22:39:10.195Z,38.30
2023-04-20T22:41:40.826Z,38.29
2023-04-20T22:44:11.127Z,38.31
2023-04-20T22:46:41.166Z,37.96
2023-04-20T22:49:11.383Z,38.18
2023-04-20T22:51:43.596Z,38.20
2023-04-20T22:54:13.204Z,38.35
2023-04-20T22:56:42.959Z,38.13
2023-04-20T22:59:13.108Z,38.19
2023-04-20T23:01:43.386Z,38.22
2023-04-20T23:04:13.703Z,38.29
2023-04-20T23:06:46.049Z,38.11
2023-04-20T23:09:20.963Z,38.14
2023-04-20T23:11:51.571Z,38.50
2023-04-20T23:14:22.840Z,38.20
2023-04-20T23:16:53.449Z,38.25
2023-04-20T23:19:23.598Z,38.06
2023-04-20T23:21:55.606Z,38.33
2023-04-20T23:24:25.258Z,38.14
2023-04-20T23:26:55.593Z,38.08
2023-04-20T23:29:25.267Z,38.21
2023-04-20T23:31:55.545Z,38.15
2023-04-20T23:34:25.834Z,38.12
2023-04-20T23:36:57.557Z,38.18
2023-04-20T23:39:27.807Z,38.06
2023-04-20T23:41:58.274Z,38.16
2023-04-20T23:44:28.314Z,38.13
2023-04-20T23:46:58.572Z,38.03
2023-04-20T23:49:28.845Z,38.10
2023-04-20T23:52:00.773Z,38.13
2023-04-20T23:54:33.240Z,37.99
2023-04-20T23:57:03.691Z,38.10
2023-04-20T23:59:34.361Z,38.06
